Time;durP1;ratioP1;P1;durP2;ratioP2;P2;SDS_P1;SDS_P2;PMS_P1;PMS_P2;Temp;Humidity;BMP_temperature;BMP_pressure;BME280_temperature;BME280_humidity;BME280_pressure;Samples;Min_cycle;Max_cycle;Signal;HPM_P1;HPM_P2
2021/05/04 00:01:30;;;;;;;11.20;6.53;;;;;;;7.45;62.00;100612.34;5093865;28;20032;-75
2021/05/04 00:03:55;;;;;;;14.57;6.93;;;;;;;7.52;62.37;100620.91;5076013;28;20484;-74
2021/05/04 00:06:21;;;;;;;12.73;7.28;;;;;;;7.41;63.06;100626.66;5093970;28;20066;-74
2021/05/04 00:08:46;;;;;;;13.23;6.68;;;;;;;7.24;62.91;100602.63;5075633;28;20031;-75
2021/05/04 00:11:12;;;;;;;13.68;6.82;;;;;;;7.45;63.16;100625.63;5094558;28;20038;-74
2021/05/04 00:13:37;;;;;;;10.25;6.63;;;;;;;7.30;63.44;100599.69;5075779;28;20420;-72
2021/05/04 00:16:03;;;;;;;11.68;6.53;;;;;;;7.40;63.45;100614.31;5093676;28;20036;-74
2021/05/04 00:18:29;;;;;;;10.13;6.82;;;;;;;7.53;62.03;100611.13;5093947;28;20397;-73
2021/05/04 00:20:55;;;;;;;11.88;7.00;;;;;;;7.29;63.09;100592.66;5076090;28;20031;-71
2021/05/04 00:23:21;;;;;;;9.80;6.60;;;;;;;7.49;62.33;100618.38;5060791;28;20030;-73
2021/05/04 00:25:46;;;;;;;13.20;6.72;;;;;;;7.33;63.25;100612.84;5079081;28;20040;-73
2021/05/04 00:28:12;;;;;;;14.30;7.05;;;;;;;7.29;64.51;100611.25;5094823;28;20036;-72
2021/05/04 00:30:37;;;;;;;12.85;7.40;;;;;;;7.11;65.19;100612.00;5093248;28;20043;-74
2021/05/04 00:33:03;;;;;;;17.85;7.78;;;;;;;7.16;64.94;100610.88;5094747;28;20036;-76
2021/05/04 00:35:28;;;;;;;12.90;7.88;;;;;;;7.04;65.05;100602.53;5093903;28;20174;-77
2021/05/04 00:37:54;;;;;;;13.05;7.75;;;;;;;6.99;64.69;100580.66;5075739;28;20035;-78
2021/05/04 00:40:20;;;;;;;15.63;7.88;;;;;;;7.25;64.50;100604.34;5093814;28;20036;-78
2021/05/04 00:42:45;;;;;;;12.95;7.63;;;;;;;7.16;64.77;100599.41;5093407;28;20024;-77
2021/05/04 00:45:11;;;;;;;14.45;8.15;;;;;;;7.34;63.11;100603.09;5075278;28;20043;-75
2021/05/04 00:47:36;;;;;;;16.13;8.82;;;;;;;7.12;63.46;100581.88;5058556;28;20036;-77
2021/05/04 00:50:03;;;;;;;14.48;8.77;;;;;;;7.15;63.55;100603.00;5093436;28;20464;-78
2021/05/04 00:52:29;;;;;;;16.83;9.73;;;;;;;7.05;63.90;100602.50;5093423;28;20036;-80
2021/05/04 00:54:56;;;;;;;18.25;8.70;;;;;;;6.80;64.77;100575.22;5093498;28;20038;-75
2021/05/04 00:57:23;;;;;;;11.95;8.07;;;;;;;6.88;64.97;100599.66;5093400;28;20086;-74
2021/05/04 00:59:49;;;;;;;16.58;9.05;;;;;;;6.83;65.15;100601.59;5074980;28;20213;-75
2021/05/04 01:02:16;;;;;;;19.30;9.18;;;;;;;6.79;65.21;100598.22;5093504;28;20111;-75
2021/05/04 01:04:42;;;;;;;15.98;10.30;;;;;;;6.82;64.33;100590.13;5058310;28;20028;-75
2021/05/04 01:07:08;;;;;;;18.08;11.30;;;;;;;6.88;64.11;100600.50;5075188;28;20500;-75
2021/05/04 01:09:34;;;;;;;21.25;11.50;;;;;;;6.83;64.73;100606.91;5093347;28;20028;-75
2021/05/04 01:12:00;;;;;;;19.02;11.60;;;;;;;6.75;64.54;100604.56;5093001;28;20453;-75
2021/05/04 01:14:25;;;;;;;18.67;11.45;;;;;;;6.61;64.67;100585.69;5075158;28;20119;-74
2021/05/04 01:16:54;;;;;;;21.88;11.48;;;;;;;6.59;64.78;100583.09;5041295;28;20151;-76
2021/05/04 01:19:20;;;;;;;18.35;11.38;;;;;;;6.91;63.77;100596.00;5075121;28;20035;-73
2021/05/04 01:21:45;;;;;;;18.58;11.20;;;;;;;6.88;63.58;100597.84;5092924;28;20066;-73
2021/05/04 01:24:12;;;;;;;19.15;10.70;;;;;;;6.93;62.88;100595.00;5092996;28;20060;-72
2021/05/04 01:26:41;;;;;;;17.45;10.70;;;;;;;6.83;62.10;100577.75;5092775;28;20024;-72
2021/05/04 01:29:07;;;;;;;23.58;10.60;;;;;;;6.96;61.77;100594.06;5093142;28;20031;-72
2021/05/04 01:31:32;;;;;;;26.33;11.77;;;;;;;6.94;61.49;100593.22;5092529;28;20035;-73
2021/05/04 01:33:58;;;;;;;25.10;11.20;;;;;;;6.88;61.23;100571.34;5093106;28;20050;-70
2021/05/04 01:36:24;;;;;;;21.13;10.85;;;;;;;6.98;61.00;100589.53;5074787;28;20029;-71
2021/05/04 01:38:49;;;;;;;27.88;12.07;;;;;;;6.99;61.07;100599.22;5074717;28;20036;-71
2021/05/04 01:41:15;;;;;;;25.13;13.77;;;;;;;6.90;61.44;100597.78;5093318;28;20055;-71
2021/05/04 01:43:41;;;;;;;25.00;12.85;;;;;;;6.82;61.68;100590.13;5078036;28;20411;-72
2021/05/04 01:46:06;;;;;;;24.27;13.57;;;;;;;6.67;62.49;100590.75;5096995;28;20036;-71
2021/05/04 01:48:32;;;;;;;24.85;13.25;;;;;;;6.47;63.38;100595.94;5078827;28;20118;-78
2021/05/04 01:50:57;;;;;;;22.40;12.63;;;;;;;6.39;63.89;100593.59;5096553;28;20385;-71
2021/05/04 01:53:22;;;;;;;27.23;12.63;;;;;;;6.32;64.44;100590.28;5045511;28;20043;-71
2021/05/04 01:55:48;;;;;;;27.08;13.07;;;;;;;6.28;64.77;100588.69;5078709;28;20043;-73
2021/05/04 01:58:14;;;;;;;24.75;11.88;;;;;;;6.25;65.34;100594.09;5096751;28;20032;-72
2021/05/04 02:00:39;;;;;;;22.45;11.65;;;;;;;6.12;65.51;100566.34;5078304;28;20036;-73
2021/05/04 02:03:05;;;;;;;23.95;12.10;;;;;;;6.23;64.97;100577.38;5097080;28;20067;-73
2021/05/04 02:05:30;;;;;;;28.17;13.52;;;;;;;6.05;64.98;100556.88;5096576;28;20034;-73
2021/05/04 02:07:56;;;;;;;22.88;12.85;;;;;;;5.91;65.29;100522.97;5096376;28;20461;-73
2021/05/04 02:10:21;;;;;;;26.63;12.55;;;;;;;6.27;64.97;100583.44;5096544;28;20035;-71
2021/05/04 02:12:47;;;;;;;29.98;12.15;;;;;;;6.27;65.07;100571.06;5077774;28;20535;-71
2021/05/04 02:15:13;;;;;;;28.38;13.18;;;;;;;6.42;64.62;100574.91;5078500;28;20043;-71
2021/05/04 02:17:39;;;;;;;34.80;12.77;;;;;;;5.99;64.83;100512.97;5077584;28;20139;-71
2021/05/04 02:20:05;;;;;;;25.60;12.15;;;;;;;6.09;64.95;100553.22;5078291;28;20166;-71
2021/05/04 02:22:31;;;;;;;24.48;12.73;;;;;;;6.14;65.83;100569.78;5096445;28;20032;-73
2021/05/04 02:24:56;;;;;;;23.08;13.07;;;;;;;6.00;66.15;100569.44;5077778;28;20031;-73
2021/05/04 02:27:22;;;;;;;20.52;12.10;;;;;;;5.80;65.99;100525.13;5061412;28;20457;-74
2021/05/04 02:29:47;;;;;;;25.60;11.98;;;;;;;6.00;66.16;100567.66;5095938;28;20060;-74
2021/05/04 02:32:13;;;;;;;23.67;12.23;;;;;;;5.83;66.45;100545.31;5078265;28;20028;-74
2021/05/04 02:34:38;;;;;;;22.55;12.52;;;;;;;6.02;66.02;100564.94;5077625;28;20458;-74
2021/05/04 02:37:04;;;;;;;23.30;12.35;;;;;;;5.97;66.23;100566.88;5077694;28;20036;-75
2021/05/04 02:39:29;;;;;;;26.25;12.63;;;;;;;5.92;66.54;100567.06;5077937;28;20038;-75
2021/05/04 02:41:55;;;;;;;24.60;13.00;;;;;;;5.80;67.36;100558.66;5095731;28;20812;-75
2021/05/04 02:44:20;;;;;;;22.42;12.52;;;;;;;5.85;67.75;100577.88;5095583;28;20377;-75
2021/05/04 02:46:46;;;;;;;23.38;13.40;;;;;;;5.75;67.71;100572.03;5095585;28;20067;-75
2021/05/04 02:49:11;;;;;;;22.58;12.73;;;;;;;5.73;67.53;100569.47;5095576;28;20047;-75
2021/05/04 02:51:37;;;;;;;29.98;14.27;;;;;;;5.78;67.64;100573.72;5077573;28;20040;-77
2021/05/04 02:54:03;;;;;;;24.30;13.63;;;;;;;5.76;67.79;100581.72;5095159;28;20035;-73
2021/05/04 02:56:28;;;;;;;27.92;13.65;;;;;;;5.78;67.47;100571.06;5095656;28;20127;-73
2021/05/04 02:58:54;;;;;;;27.77;14.65;;;;;;;5.90;66.93;100570.66;5077165;28;20127;-70
2021/05/04 03:01:19;;;;;;;24.23;14.63;;;;;;;6.00;66.12;100545.59;5095919;28;20047;-70
2021/05/04 03:03:45;;;;;;;28.42;14.60;;;;;;;5.85;66.19;100551.41;5095245;28;20031;-71
2021/05/04 03:06:11;;;;;;;28.08;14.55;;;;;;;5.88;66.20;100570.69;5095366;28;20118;-71
2021/05/04 03:08:36;;;;;;;33.70;14.98;;;;;;;5.88;66.23;100570.69;5077299;28;20040;-70
2021/05/04 03:11:02;;;;;;;26.42;14.18;;;;;;;5.94;66.08;100561.69;5077056;28;20032;-71
2021/05/04 03:13:30;;;;;;;27.17;14.10;;;;;;;5.86;66.45;100558.44;5095419;28;20515;-70
2021/05/04 03:15:56;;;;;;;27.30;13.70;;;;;;;5.87;66.52;100554.84;5095196;28;20043;-70
2021/05/04 03:18:22;;;;;;;25.65;13.35;;;;;;;5.88;65.69;100520.38;5095505;28;20131;-70
2021/05/04 03:20:49;;;;;;;24.38;13.60;;;;;;;5.88;65.66;100528.31;5060575;28;20059;-71
2021/05/04 03:23:16;;;;;;;27.05;13.60;;;;;;;6.01;65.31;100531.44;5077198;28;20032;-71
2021/05/04 03:25:42;;;;;;;24.73;14.05;;;;;;;5.97;65.69;100553.63;5094836;28;20055;-72
2021/05/04 03:28:09;;;;;;;30.25;13.95;;;;;;;6.04;65.56;100541.91;5095057;28;20035;-71
2021/05/04 03:30:35;;;;;;;25.33;14.05;;;;;;;5.95;65.97;100544.88;5095014;28;20063;-71
2021/05/04 03:33:01;;;;;;;21.67;12.93;;;;;;;5.92;65.63;100526.47;5094711;28;20036;-71
2021/05/04 03:35:26;;;;;;;23.08;13.13;;;;;;;6.11;65.51;100537.25;5077051;28;20108;-71
2021/05/04 03:37:52;;;;;;;25.88;12.35;;;;;;;6.13;64.85;100540.72;5076727;28;20058;-71
2021/05/04 03:40:18;;;;;;;24.88;12.40;;;;;;;5.67;65.32;100477.03;5096882;28;20115;-71
2021/05/04 03:42:43;;;;;;;20.10;11.48;;;;;;;5.91;65.20;100530.91;5095951;28;20036;-72
2021/05/04 03:45:13;;;;;;;21.92;12.18;;;;;;;5.80;65.51;100514.53;5076798;28;20040;-72
2021/05/04 03:47:44;;;;;;;21.00;11.90;;;;;;;5.90;65.68;100530.94;5060251;28;20085;-72
2021/05/04 03:50:16;;;;;;;21.08;11.95;;;;;;;6.08;65.20;100538.25;5094885;28;20479;-72
2021/05/04 03:52:42;;;;;;;21.73;12.10;;;;;;;6.06;65.38;100542.72;5094456;28;20030;-74
2021/05/04 03:55:08;;;;;;;21.38;11.70;;;;;;;6.15;65.11;100544.16;5094865;28;20123;-71
2021/05/04 03:57:34;;;;;;;21.40;12.30;;;;;;;6.20;64.85;100542.22;5094376;28;20040;-72
2021/05/04 03:59:59;;;;;;;25.20;12.75;;;;;;;5.89;65.38;100500.09;5075920;28;20036;-72
2021/05/04 04:02:25;;;;;;;24.77;13.05;;;;;;;6.36;65.42;100558.38;5076332;28;20115;-72
2021/05/04 04:04:50;;;;;;;25.67;13.90;;;;;;;6.86;64.09;100557.28;5075140;28;20488;-75
2021/05/04 04:07:16;;;;;;;25.50;14.45;;;;;;;7.43;62.09;100539.00;5076194;28;20147;-71
2021/05/04 04:09:41;;;;;;;23.13;13.02;;;;;;;8.16;59.74;100545.53;5093639;28;20039;-75
2021/05/04 04:12:07;;;;;;;23.95;12.82;;;;;;;8.19;57.57;100473.63;5076213;28;20028;-73
2021/05/04 04:14:33;;;;;;;25.40;12.63;;;;;;;8.96;56.57;100543.53;5094096;28;20036;-69
2021/05/04 04:16:59;;;;;;;23.20;13.27;;;;;;;9.13;55.82;100502.78;5093400;28;20488;-70
2021/05/04 04:19:24;;;;;;;22.63;11.93;;;;;;;9.70;54.33;100530.91;5094029;28;20035;-73
2021/05/04 04:21:50;;;;;;;21.92;11.93;;;;;;;9.93;53.92;100521.69;5075583;28;20036;-73
2021/05/04 04:24:18;;;;;;;21.67;12.40;;;;;;;9.87;53.64;100495.38;5094169;28;20032;-73
2021/05/04 04:26:44;;;;;;;23.27;13.02;;;;;;;9.80;54.50;100519.75;5093336;28;20038;-74
2021/05/04 04:29:10;;;;;;;24.63;12.52;;;;;;;9.72;54.75;100530.81;5075731;28;20028;-73
2021/05/04 04:31:36;;;;;;;19.58;11.80;;;;;;;10.01;54.31;100518.63;5093523;28;20028;-72
2021/05/04 04:34:01;;;;;;;22.08;12.68;;;;;;;10.53;52.92;100514.00;5075382;28;20073;-72
2021/05/04 04:36:27;;;;;;;20.40;12.77;;;;;;;10.84;52.14;100514.94;5093807;28;20032;-71
2021/05/04 04:38:52;;;;;;;21.23;13.38;;;;;;;10.98;52.01;100512.31;5075329;28;20427;-72
2021/05/04 04:41:18;;;;;;;27.45;14.85;;;;;;;11.28;51.55;100508.81;5075744;28;20040;-73
2021/05/04 04:43:43;;;;;;;23.38;15.18;;;;;;;11.66;50.27;100509.19;5075087;28;20028;-80
2021/05/04 04:46:09;;;;;;;29.60;17.02;;;;;;;11.52;50.46;100498.50;5093296;28;20036;-72
2021/05/04 04:48:34;;;;;;;29.92;16.98;;;;;;;11.36;50.64;100480.72;5058726;28;20101;-73
2021/05/04 04:51:00;;;;;;;29.85;19.42;;;;;;;11.55;49.95;100476.94;5093057;28;20090;-73
2021/05/04 04:53:25;;;;;;;38.40;22.77;;;;;;;11.20;50.68;100450.56;5075281;28;20032;-72
2021/05/04 04:55:51;;;;;;;38.60;22.23;;;;;;;10.81;52.08;100494.63;5075060;28;20032;-73
2021/05/04 04:58:16;;;;;;;38.70;22.40;;;;;;;10.36;53.73;100492.75;5058610;28;20126;-73
2021/05/04 05:00:42;;;;;;;36.85;22.35;;;;;;;9.95;55.33;100498.50;5075123;28;20035;-77
2021/05/04 05:03:07;;;;;;;35.65;22.10;;;;;;;10.05;55.44;100501.53;5092936;28;20032;-75
2021/05/04 05:05:33;;;;;;;37.10;23.98;;;;;;;9.95;56.00;100509.16;5093031;28;20039;-77
2021/05/04 05:07:58;;;;;;;39.03;22.52;;;;;;;9.99;56.62;100492.06;5092945;28;20035;-77
2021/05/04 05:10:24;;;;;;;31.52;18.58;;;;;;;10.31;55.47;100474.31;5075341;28;20036;-77
2021/05/04 05:12:49;;;;;;;31.63;18.98;;;;;;;10.64;54.77;100500.06;5093082;28;20445;-75
2021/05/04 05:15:15;;;;;;;26.02;17.13;;;;;;;11.00;53.77;100485.53;5093516;28;20092;-77
2021/05/04 05:17:40;;;;;;;25.08;14.82;;;;;;;11.41;52.51;100472.44;5074764;28;20094;-74
2021/05/04 05:20:07;;;;;;;26.20;15.68;;;;;;;12.25;50.41;100483.28;5074538;28;20040;-74
2021/05/04 05:22:33;;;;;;;21.90;14.02;;;;;;;12.67;49.09;100454.75;5093106;28;20032;-73
2021/05/04 05:24:58;;;;;;;22.55;14.18;;;;;;;13.30;47.79;100478.19;5074864;28;20042;-73
2021/05/04 05:27:25;;;;;;;23.05;13.88;;;;;;;13.72;46.45;100456.50;5108314;28;20036;-74
2021/05/04 05:29:51;;;;;;;22.10;13.65;;;;;;;14.35;45.42;100470.78;5072836;28;20048;-74
2021/05/04 05:32:16;;;;;;;24.73;13.93;;;;;;;14.91;44.18;100446.13;5094753;28;20039;-72
2021/05/04 05:34:42;;;;;;;24.38;14.00;;;;;;;15.00;43.83;100466.94;5068524;28;20043;-71
2021/05/04 05:37:07;;;;;;;22.23;13.90;;;;;;;15.31;43.25;100455.56;5074575;28;20044;-72
2021/05/04 05:39:41;;;;;;;21.55;12.93;;;;;;;15.62;42.98;100461.28;5073566;28;20032;-76
2021/05/04 05:42:07;;;;;;;22.33;12.88;;;;;;;16.26;41.93;100458.88;5090794;28;20044;-79
2021/05/04 05:44:32;;;;;;;23.27;13.15;;;;;;;16.42;41.32;100448.59;5099394;28;20038;-74
2021/05/04 05:46:58;;;;;;;19.70;12.75;;;;;;;16.51;41.33;100450.56;5100969;28;20039;-78
2021/05/04 05:49:23;;;;;;;23.98;13.82;;;;;;;16.75;40.51;100450.38;5086966;28;20119;-73
2021/05/04 05:51:49;;;;;;;19.50;12.63;;;;;;;16.59;41.08;100420.28;5092323;28;20384;-74
2021/05/04 05:54:14;;;;;;;20.30;12.38;;;;;;;16.79;41.25;100448.28;5094204;28;20031;-80
2021/05/04 05:56:40;;;;;;;20.45;12.93;;;;;;;17.27;40.76;100437.91;5094242;28;20093;-82
2021/05/04 05:59:06;;;;;;;20.05;12.98;;;;;;;17.27;41.02;100445.16;5111837;28;20035;-84
2021/05/04 06:01:31;;;;;;;18.67;13.45;;;;;;;17.58;40.48;100438.84;5112544;28;20076;-78
2021/05/04 06:03:57;;;;;;;21.27;12.77;;;;;;;17.71;40.94;100423.34;5061865;28;20036;-78
2021/05/04 06:06:22;;;;;;;15.02;11.00;;;;;;;17.94;41.20;100439.34;5112400;28;20067;-75
2021/05/04 06:08:48;;;;;;;17.85;11.13;;;;;;;18.18;40.89;100436.34;5077155;28;20035;-80
2021/05/04 06:11:13;;;;;;;16.08;11.13;;;;;;;18.23;40.97;100420.56;5112620;28;20110;-84
2021/05/04 06:13:39;;;;;;;16.17;10.93;;;;;;;18.48;40.80;100427.34;5113865;28;20104;-73
2021/05/04 06:16:05;;;;;;;15.07;10.65;;;;;;;18.50;40.48;100411.84;5111584;28;20051;-78
2021/05/04 06:18:31;;;;;;;18.38;10.40;;;;;;;18.55;40.70;100415.00;5112233;28;20134;-79
2021/05/04 06:20:57;;;;;;;14.38;10.63;;;;;;;19.27;39.19;100420.00;5077286;28;20468;-82
2021/05/04 06:23:22;;;;;;;13.05;9.18;;;;;;;19.16;38.51;100414.75;5111917;28;20035;-79
2021/05/04 06:25:51;;;;;;;14.90;9.75;;;;;;;18.95;39.16;100417.63;5077329;28;20173;-86
2021/05/04 06:28:16;;;;;;;14.57;9.73;;;;;;;18.73;39.91;100399.84;5094995;28;20067;-77
2021/05/04 06:30:42;;;;;;;13.18;9.73;;;;;;;18.80;39.47;100409.06;5109705;28;20105;-75
2021/05/04 06:33:13;;;;;;;12.75;9.65;;;;;;;19.03;38.71;100400.69;5089325;28;20469;-78
2021/05/04 06:35:41;;;;;;;14.52;10.45;;;;;;;19.03;38.44;100409.66;5057273;28;20119;-77
2021/05/04 06:38:11;;;;;;;15.57;10.18;;;;;;;19.13;38.13;100391.56;5074762;28;20055;-77
2021/05/04 06:40:37;;;;;;;15.20;10.35;;;;;;;19.36;37.94;100402.06;5057442;28;20384;-79
2021/05/04 06:43:03;;;;;;;14.25;10.00;;;;;;;19.46;37.20;100378.56;5046269;28;20048;-77
2021/05/04 06:45:29;;;;;;;16.67;11.07;;;;;;;19.56;37.55;100394.78;5075503;28;20037;-75
2021/05/04 06:47:54;;;;;;;12.88;10.77;;;;;;;19.43;37.54;100404.06;5040679;28;20033;-76
2021/05/04 06:50:20;;;;;;;17.73;11.52;;;;;;;19.57;37.70;100401.91;5056936;28;20074;-75
2021/05/04 06:52:46;;;;;;;15.63;10.25;;;;;;;19.58;37.38;100395.50;5075640;28;20050;-80
2021/05/04 06:55:12;;;;;;;12.82;9.30;;;;;;;19.22;37.74;100406.09;5041358;28;20048;-81
2021/05/04 06:57:38;;;;;;;16.52;9.10;;;;;;;18.09;39.69;100397.53;5076781;28;20162;-75
2021/05/04 07:00:05;;;;;;;11.15;8.63;;;;;;;17.67;40.25;100404.84;5092338;28;20041;-78
2021/05/04 07:02:31;;;;;;;13.93;8.50;;;;;;;17.02;41.92;100409.50;5058731;28;20170;-82
2021/05/04 07:04:56;;;;;;;13.85;9.23;;;;;;;16.98;42.72;100407.19;5058334;28;20083;-77
2021/05/04 07:07:21;;;;;;;13.57;9.05;;;;;;;16.73;43.42;100393.09;5057484;28;20035;-79
2021/05/04 07:09:47;;;;;;;14.55;8.45;;;;;;;16.72;43.11;100395.94;5040781;28;20485;-77
2021/05/04 07:12:13;;;;;;;10.85;8.02;;;;;;;16.59;43.46;100402.28;5056750;28;20444;-80
2021/05/04 07:14:39;;;;;;;10.57;7.05;;;;;;;16.44;42.92;100387.41;5056702;28;20033;-78
2021/05/04 07:17:05;;;;;;;11.55;7.72;;;;;;;16.09;42.93;100390.28;5073980;28;20048;-80
2021/05/04 07:19:30;;;;;;;12.68;6.97;;;;;;;16.02;42.91;100372.94;5073978;28;20393;-80
2021/05/04 07:21:56;;;;;;;10.70;6.93;;;;;;;15.83;42.96;100373.56;5040193;28;20039;-77
2021/05/04 07:24:22;;;;;;;12.77;7.30;;;;;;;16.16;41.83;100379.88;5056316;28;20041;-81
2021/05/04 07:26:48;;;;;;;12.57;6.00;;;;;;;16.12;42.15;100386.50;5056426;28;20040;-77
2021/05/04 07:29:13;;;;;;;10.40;6.72;;;;;;;16.14;42.34;100384.53;5056030;28;20033;-85
2021/05/04 07:31:40;;;;;;;8.77;6.05;;;;;;;16.12;42.01;100373.91;5074236;28;20036;-74
2021/05/04 07:34:05;;;;;;;10.10;6.22;;;;;;;15.67;41.85;100327.34;5055658;28;20044;-81
2021/05/04 07:36:31;;;;;;;11.20;6.18;;;;;;;16.08;42.10;100374.25;5074143;28;20458;-83
2021/05/04 07:38:58;;;;;;;7.25;5.43;;;;;;;15.94;41.17;100376.25;5056244;28;20093;-79
2021/05/04 07:41:24;;;;;;;7.10;5.10;;;;;;;15.89;41.03;100370.38;5039620;28;20037;-81
2021/05/04 07:43:49;;;;;;;10.95;5.72;;;;;;;15.83;41.77;100370.03;5056204;28;20186;-80
2021/05/04 07:46:15;;;;;;;8.75;4.80;;;;;;;15.72;40.92;100357.41;5073678;28;20452;-78
2021/05/04 07:48:40;;;;;;;8.50;4.47;;;;;;;15.75;40.12;100365.25;5073853;28;20055;-85
2021/05/04 07:51:06;;;;;;;9.85;5.45;;;;;;;15.60;40.13;100364.63;5073952;28;20032;-82
2021/05/04 07:53:32;;;;;;;8.13;4.70;;;;;;;15.50;40.63;100342.09;5073694;28;20040;-83
2021/05/04 07:55:58;;;;;;;10.25;4.97;;;;;;;15.68;40.70;100353.25;5056118;28;20081;-82
2021/05/04 07:58:24;;;;;;;15.32;5.47;;;;;;;15.74;40.86;100359.00;5073420;28;20040;-80
2021/05/04 08:00:49;;;;;;;9.02;5.38;;;;;;;15.81;40.99;100363.88;5073639;28;20063;-83
2021/05/04 08:03:15;;;;;;;15.02;6.00;;;;;;;15.46;41.16;100352.25;5054906;28;20067;-81
2021/05/04 08:05:41;;;;;;;20.08;6.07;;;;;;;15.32;41.95;100348.91;5055997;28;20082;-82
2021/05/04 08:08:07;;;;;;;13.00;5.72;;;;;;;15.49;41.84;100350.28;5073513;28;20171;-77
2021/05/04 08:10:34;;;;;;;15.07;6.28;;;;;;;15.72;41.99;100346.66;5072718;28;20370;-77
2021/05/04 08:13:03;;;;;;;11.27;6.07;;;;;;;15.68;42.40;100345.19;5056028;28;20064;-81
2021/05/04 08:15:28;;;;;;;11.95;6.30;;;;;;;15.65;42.70;100342.75;5054955;28;20572;-84
2021/05/04 08:17:59;;;;;;;11.15;6.18;;;;;;;15.68;42.54;100339.81;5054974;28;20125;-82
2021/05/04 08:20:29;;;;;;;10.90;5.78;;;;;;;15.79;41.77;100337.13;5072944;28;20029;-82
2021/05/04 08:22:55;;;;;;;10.57;5.78;;;;;;;15.69;41.44;100331.63;5073014;28;20036;-78
2021/05/04 08:25:22;;;;;;;8.90;5.38;;;;;;;15.52;41.07;100324.00;5073094;28;20109;-80
2021/05/04 08:27:48;;;;;;;11.55;5.45;;;;;;;15.63;41.74;100339.31;5073121;28;20124;-77
2021/05/04 08:30:14;;;;;;;9.93;5.40;;;;;;;15.80;41.16;100328.06;5054937;28;20032;-84
2021/05/04 08:32:39;;;;;;;11.98;5.60;;;;;;;15.67;41.72;100324.66;5057742;28;20105;-84
2021/05/04 08:35:06;;;;;;;10.80;5.43;;;;;;;15.74;41.94;100312.44;5076647;28;20462;-80
2021/05/04 08:37:31;;;;;;;10.85;5.50;;;;;;;16.01;41.91;100326.31;5075066;28;20058;-75
2021/05/04 08:39:57;;;;;;;9.13;4.45;;;;;;;16.07;39.82;100310.66;5097827;28;20036;-79
2021/05/04 08:42:22;;;;;;;10.60;4.50;;;;;;;15.94;39.76;100292.00;5075117;28;20039;-82
2021/05/04 08:44:52;;;;;;;7.03;4.28;;;;;;;16.05;39.30;100301.88;5044616;28;20420;-79
2021/05/04 08:47:21;;;;;;;9.75;4.43;;;;;;;15.94;39.60;100298.22;5076968;28;20438;-77
2021/05/04 08:49:48;;;;;;;11.20;4.55;;;;;;;16.06;39.20;100304.44;5074857;28;20051;-75
2021/05/04 08:52:16;;;;;;;9.32;4.65;;;;;;;16.16;38.80;100315.28;5092162;28;20036;-75
2021/05/04 08:54:41;;;;;;;7.85;4.47;;;;;;;16.10;39.21;100302.34;5092431;28;20024;-76
2021/05/04 08:57:07;;;;;;;9.57;4.68;;;;;;;16.17;39.15;100292.78;5092345;28;20358;-75
2021/05/04 08:59:32;;;;;;;7.05;4.30;;;;;;;16.23;38.32;100313.81;5073915;28;20039;-77
2021/05/04 09:01:58;;;;;;;13.52;4.10;;;;;;;16.22;38.29;100296.81;5092977;28;20089;-79
2021/05/04 09:04:37;;;;;;;6.45;3.90;;;;;;;16.36;38.55;100303.72;5092173;28;20028;-79
2021/05/04 09:07:14;;;;;;;11.98;3.53;;;;;;;16.55;38.16;100293.13;5092755;28;20118;-75
2021/05/04 09:13:12;;;;;;;10.13;3.85;;;;;;;16.71;37.80;100291.88;4991069;28;20045;-73
2021/05/04 09:19:04;;;;;;;7.20;3.40;;;;;;;16.75;36.65;100274.47;5071251;28;20062;-76
2021/05/04 09:21:32;;;;;;;6.68;3.60;;;;;;;16.77;36.71;100272.47;5092044;28;20078;-79
2021/05/04 09:23:58;;;;;;;7.25;3.80;;;;;;;16.74;35.70;100264.66;5074512;28;20028;-76
2021/05/04 09:26:33;;;;;;;7.22;3.78;;;;;;;16.64;36.38;100258.31;5057482;28;20114;-71
2021/05/04 09:28:59;;;;;;;10.15;3.17;;;;;;;16.82;35.67;100256.78;5091710;28;20445;-73
2021/05/04 09:31:29;;;;;;;5.53;2.75;;;;;;;16.92;35.33;100263.09;5073961;28;20055;-70
2021/05/04 09:34:05;;;;;;;7.25;2.42;;;;;;;16.93;34.93;100245.94;5054266;28;20060;-71
2021/05/04 09:36:43;;;;;;;6.75;3.20;;;;;;;16.99;35.95;100253.50;5053793;28;20029;-72
2021/05/04 09:39:23;;;;;;;6.93;3.10;;;;;;;17.05;36.07;100247.56;5054136;28;20028;-75
2021/05/04 09:41:49;;;;;;;7.82;3.40;;;;;;;17.20;36.04;100239.13;5072102;28;20040;-72
2021/05/04 09:44:34;;;;;;;6.03;3.42;;;;;;;17.17;34.96;100235.69;5054905;28;20442;-76
2021/05/04 09:47:00;;;;;;;7.80;2.90;;;;;;;17.26;34.80;100225.94;5092050;28;20068;-71
2021/05/04 09:49:33;;;;;;;7.75;3.53;;;;;;;17.27;35.12;100237.56;5073786;28;20124;-70
2021/05/04 09:55:23;;;;;;;5.28;2.83;;;;;;;17.28;34.23;100185.41;5092249;28;20032;-69
2021/05/04 09:57:49;;;;;;;6.72;3.03;;;;;;;17.59;34.36;100211.31;5068764;28;20040;-73
2021/05/04 10:00:23;;;;;;;6.60;3.00;;;;;;;17.60;33.42;100204.94;5091328;28;20111;-81
2021/05/04 10:02:49;;;;;;;8.25;3.10;;;;;;;17.54;33.36;100210.84;5088986;28;20029;-75
2021/05/04 10:05:20;;;;;;;6.60;2.92;;;;;;;17.39;33.78;100193.38;5057897;28;20047;-78
2021/05/04 10:07:46;;;;;;;5.28;2.50;;;;;;;17.60;34.03;100199.53;5057712;28;20037;-73
2021/05/04 10:10:15;;;;;;;8.32;3.47;;;;;;;17.41;33.77;100159.03;5074942;28;20489;-70
2021/05/04 10:12:43;;;;;;;5.60;2.83;;;;;;;17.68;33.87;100207.78;5075413;28;20056;-75
2021/05/04 10:15:11;;;;;;;6.07;2.70;;;;;;;17.69;33.05;100192.44;5057716;28;20032;-76
2021/05/04 10:17:38;;;;;;;8.00;3.20;;;;;;;17.67;33.92;100189.91;5074954;28;20052;-71
2021/05/04 10:20:07;;;;;;;7.07;2.72;;;;;;;17.81;34.67;100185.13;5056932;28;20036;-73
2021/05/04 10:22:37;;;;;;;6.65;2.75;;;;;;;17.71;34.63;100144.63;5077367;28;20021;-69
2021/05/04 10:25:09;;;;;;;6.90;3.40;;;;;;;18.15;35.00;100183.72;5077387;28;20031;-70
2021/05/04 10:27:37;;;;;;;6.97;2.90;;;;;;;18.18;34.84;100169.94;5095456;28;20082;-74
2021/05/04 10:30:04;;;;;;;5.10;2.45;;;;;;;18.12;34.19;100170.50;5095691;28;20028;-75
2021/05/04 10:32:50;;;;;;;7.93;3.28;;;;;;;18.15;34.29;100162.13;5096298;28;20035;-71
2021/05/04 10:35:31;;;;;;;6.18;3.20;;;;;;;18.28;34.53;100165.38;5099670;28;20558;-72
2021/05/04 10:38:07;;;;;;;7.55;3.30;;;;;;;18.14;34.45;100160.41;5105009;28;20039;-76
2021/05/04 10:40:34;;;;;;;10.40;3.17;;;;;;;18.19;34.37;100139.25;5086102;28;20036;-72
2021/05/04 10:43:21;;;;;;;7.05;3.10;;;;;;;18.23;34.60;100154.13;5098436;28;20028;-75
2021/05/04 10:45:57;;;;;;;7.43;2.90;;;;;;;18.37;35.01;100150.16;5095911;28;20048;-76
2021/05/04 10:48:40;;;;;;;9.35;3.38;;;;;;;18.37;34.35;100141.22;5095237;28;20056;-77
2021/05/04 10:51:13;;;;;;;8.70;3.17;;;;;;;17.95;34.62;100084.84;5095334;28;20036;-77
2021/05/04 10:53:56;;;;;;;7.63;2.97;;;;;;;18.34;34.41;100133.41;5094987;28;20783;-76
2021/05/04 10:56:39;;;;;;;8.60;3.03;;;;;;;18.36;33.94;100124.16;5076615;28;20580;-76
2021/05/04 10:59:07;;;;;;;6.55;2.83;;;;;;;18.31;33.68;100113.78;5094698;28;20069;-75
2021/05/04 11:01:35;;;;;;;7.82;3.10;;;;;;;18.37;33.55;100123.16;5076507;28;20062;-77
2021/05/04 11:04:01;;;;;;;5.32;2.80;;;;;;;18.28;33.70;100108.69;5063677;28;20032;-78
2021/05/04 11:06:26;;;;;;;5.00;2.95;;;;;;;18.13;33.79;100103.88;5074468;28;20036;-80
2021/05/04 11:08:52;;;;;;;6.40;3.10;;;;;;;18.22;33.91;100111.94;5074395;28;20039;-81
2021/05/04 11:11:29;;;;;;;8.65;3.75;;;;;;;18.26;33.04;100109.84;5074671;28;20032;-79
2021/05/04 11:14:00;;;;;;;5.45;3.20;;;;;;;18.31;33.67;100097.56;5073861;28;20044;-81
2021/05/04 11:16:34;;;;;;;6.70;3.05;;;;;;;18.50;33.01;100095.81;5074152;28;20025;-83
2021/05/04 11:19:08;;;;;;;7.63;3.00;;;;;;;18.38;32.85;100072.72;5074344;28;20481;-82
2021/05/04 11:21:40;;;;;;;6.38;2.63;;;;;;;18.57;32.13;100103.19;5074006;28;20474;-81
2021/05/04 11:24:08;;;;;;;6.70;3.03;;;;;;;18.53;32.88;100084.75;5074385;28;20028;-78
2021/05/04 11:26:47;;;;;;;5.97;2.97;;;;;;;18.80;32.70;100086.66;5073940;28;20115;-78
2021/05/04 11:29:14;;;;;;;6.43;3.15;;;;;;;18.84;31.80;100072.72;5056009;28;20035;-77